Time;durP1;ratioP1;P1;durP2;ratioP2;P2;SDS_P1;SDS_P2;PMS_P1;PMS_P2;Temp;Humidity;BMP_temperature;BMP_pressure;BME280_temperature;BME280_humidity;BME280_pressure;Samples;Min_cycle;Max_cycle;Signal;HPM_P1;HPM_P2
2023/08/15 00:02:15;;;;;;;2.58;2.38;;;18.30;99.90;;;;;;5023213;28;20037;-71
2023/08/15 00:04:41;;;;;;;4.93;2.20;;;18.30;99.90;;;;;;5012143;28;20060;-71
2023/08/15 00:07:07;;;;;;;2.47;2.28;;;18.30;99.90;;;;;;5024626;28;20037;-72
2023/08/15 00:09:32;;;;;;;3.55;2.45;;;18.20;99.90;;;;;;5020970;28;20129;-71
2023/08/15 00:11:59;;;;;;;3.08;2.28;;;18.10;99.90;;;;;;4998266;28;20146;-72
2023/08/15 00:14:25;;;;;;;5.30;2.47;;;18.00;99.90;;;;;;4993135;28;20048;-71
2023/08/15 00:16:51;;;;;;;4.05;2.72;;;18.10;99.90;;;;;;5012716;28;20391;-68
2023/08/15 00:19:17;;;;;;;8.52;2.58;;;18.10;99.90;;;;;;5019956;28;20037;-70
2023/08/15 00:21:42;;;;;;;7.32;2.38;;;18.10;99.90;;;;;;5019867;28;20037;-69
2023/08/15 00:24:08;;;;;;;4.72;2.38;;;18.10;99.90;;;;;;5013549;28;20077;-69
2023/08/15 00:26:34;;;;;;;2.30;2.10;;;18.00;99.90;;;;;;5023555;28;20041;-69
2023/08/15 00:29:00;;;;;;;2.60;2.10;;;18.00;99.90;;;;;;5018405;28;20112;-69
2023/08/15 00:31:25;;;;;;;2.95;2.33;;;17.90;99.90;;;;;;5011397;28;20052;-69
2023/08/15 00:33:51;;;;;;;3.53;2.40;;;17.90;99.90;;;;;;5004943;28;20560;-68
2023/08/15 00:36:17;;;;;;;2.22;2.00;;;17.90;99.90;;;;;;5011941;28;20072;-69
2023/08/15 00:38:43;;;;;;;2.38;2.10;;;17.90;99.90;;;;;;5005703;28;20307;-69
2023/08/15 00:41:09;;;;;;;1.98;1.88;;;17.90;99.90;;;;;;5011626;28;20877;-70
2023/08/15 00:43:35;;;;;;;2.90;2.38;;;17.90;99.90;;;;;;5010882;28;20136;-66
2023/08/15 00:46:05;;;;;;;5.22;2.13;;;17.90;99.90;;;;;;5021769;28;20125;-67
2023/08/15 00:48:32;;;;;;;2.25;2.00;;;17.90;99.90;;;;;;5008306;28;20095;-67
2023/08/15 00:51:00;;;;;;;1.88;1.77;;;17.90;99.90;;;;;;5010427;28;20051;-66
2023/08/15 00:53:33;;;;;;;3.50;2.22;;;17.90;99.90;;;;;;5008205;28;20142;-67
2023/08/15 00:55:59;;;;;;;;;;;17.90;99.90;;;;;;4998450;28;22087;-66
2023/08/15 00:58:26;;;;;;;4.63;2.47;;;17.80;99.90;;;;;;5007420;28;20443;-67
2023/08/15 01:00:51;;;;;;;2.65;2.20;;;17.80;99.90;;;;;;5012936;28;20056;-67
2023/08/15 01:03:18;;;;;;;3.03;2.28;;;17.80;99.90;;;;;;5012703;28;20095;-67
2023/08/15 01:05:44;;;;;;;2.40;2.08;;;17.80;99.90;;;;;;4995890;28;20033;-66
2023/08/15 01:08:10;;;;;;;5.97;2.20;;;17.80;99.90;;;;;;5013342;28;20036;-66
2023/08/15 01:10:39;;;;;;;2.97;2.70;;;17.80;99.90;;;;;;5020598;28;20583;-67
2023/08/15 01:13:33;;;;;;;3.95;2.20;;;17.70;99.90;;;;;;5021848;28;20535;-67
2023/08/15 01:16:01;;;;;;;3.55;2.58;;;17.70;99.90;;;;;;5023894;28;20123;-67
2023/08/15 01:18:42;;;;;;;2.55;2.35;;;17.70;99.90;;;;;;5004850;28;20029;-67
2023/08/15 01:21:09;;;;;;;3.72;3.35;;;17.80;99.90;;;;;;5005872;28;20036;-67
2023/08/15 01:23:43;;;;;;;2.95;2.08;;;17.80;99.90;;;;;;5023894;28;20048;-67
2023/08/15 01:26:09;;;;;;;3.03;2.22;;;17.80;99.90;;;;;;5020736;28;20049;-68
2023/08/15 01:28:34;;;;;;;2.67;2.05;;;17.80;99.90;;;;;;5021008;28;20584;-68
2023/08/15 01:31:25;;;;;;;2.25;2.05;;;17.70;99.90;;;;;;5023131;28;20080;-67
2023/08/15 01:34:15;;;;;;;2.33;2.20;;;17.60;99.90;;;;;;4992993;28;20118;-67
2023/08/15 01:36:48;;;;;;;2.33;2.17;;;17.50;99.90;;;;;;5019438;28;20457;-68
2023/08/15 01:39:17;;;;;;;5.25;2.10;;;17.50;99.90;;;;;;5014031;28;20071;-67
2023/08/15 01:41:44;;;;;;;2.40;2.10;;;17.40;99.90;;;;;;5015899;28;20497;-68
2023/08/15 01:44:13;;;;;;;2.05;1.80;;;17.40;99.90;;;;;;5024747;28;20410;-67
2023/08/15 01:46:39;;;;;;;3.22;2.40;;;17.40;99.90;;;;;;5019809;28;20055;-68
2023/08/15 01:49:05;;;;;;;3.63;2.70;;;17.40;99.90;;;;;;5018821;28;20029;-67
2023/08/15 01:51:30;;;;;;;7.22;2.28;;;17.30;99.90;;;;;;5015227;28;20045;-68
2023/08/15 01:53:56;;;;;;;2.70;2.50;;;17.20;99.90;;;;;;5015515;28;20047;-68
2023/08/15 01:56:22;;;;;;;2.47;2.28;;;17.30;99.90;;;;;;5013610;28;20043;-68
2023/08/15 01:58:47;;;;;;;2.40;2.13;;;17.30;99.90;;;;;;5022431;28;20048;-68
2023/08/15 02:01:14;;;;;;;2.92;2.45;;;17.30;99.90;;;;;;5019405;28;20044;-68
2023/08/15 02:03:40;;;;;;;3.10;2.00;;;17.30;99.90;;;;;;5013019;28;20037;-67
2023/08/15 02:06:05;;;;;;;4.25;2.10;;;17.30;99.90;;;;;;5024123;28;20536;-67
2023/08/15 02:08:31;;;;;;;3.30;2.40;;;17.40;99.90;;;;;;5018919;28;20067;-68
2023/08/15 02:10:57;;;;;;;9.63;2.33;;;17.40;99.90;;;;;;5023752;28;20138;-68
2023/08/15 02:13:22;;;;;;;3.00;2.70;;;17.40;99.90;;;;;;5019228;28;20040;-68
2023/08/15 02:15:49;;;;;;;2.30;2.10;;;17.50;99.90;;;;;;5019655;28;20231;-67
2023/08/15 02:18:14;;;;;;;2.38;2.17;;;17.40;99.90;;;;;;5010902;28;20033;-68
2023/08/15 02:20:40;;;;;;;3.58;2.70;;;17.30;99.90;;;;;;5024329;28;20083;-68
2023/08/15 02:23:05;;;;;;;3.00;2.30;;;17.20;99.90;;;;;;5005881;28;20120;-68
2023/08/15 02:25:31;;;;;;;2.30;2.10;;;17.20;99.90;;;;;;5018259;28;20151;-68
2023/08/15 02:27:57;;;;;;;2.95;2.17;;;17.20;99.90;;;;;;5020750;28;20841;-67
2023/08/15 02:30:22;;;;;;;4.68;2.40;;;17.20;99.90;;;;;;5019831;28;20520;-68
2023/08/15 02:32:48;;;;;;;3.25;2.47;;;17.20;99.90;;;;;;5011247;28;20036;-68
2023/08/15 02:35:14;;;;;;;2.63;2.10;;;17.30;99.90;;;;;;5011726;28;20025;-67
2023/08/15 02:37:40;;;;;;;3.85;2.45;;;17.30;99.90;;;;;;5013094;28;20335;-67
2023/08/15 02:40:08;;;;;;;2.30;2.05;;;17.30;99.90;;;;;;5008424;28;20033;-67
2023/08/15 02:42:34;;;;;;;2.60;1.92;;;17.30;99.90;;;;;;4989325;28;20128;-67
2023/08/15 02:45:00;;;;;;;4.65;2.47;;;17.20;99.90;;;;;;5015493;28;20059;-67
2023/08/15 02:47:25;;;;;;;5.22;2.53;;;17.20;99.90;;;;;;5010615;28;21314;-67
2023/08/15 02:49:51;;;;;;;4.47;2.40;;;17.00;99.90;;;;;;5007614;28;20146;-68
2023/08/15 02:52:17;;;;;;;4.72;2.42;;;17.00;99.90;;;;;;5024203;28;20681;-68
2023/08/15 02:54:42;;;;;;;3.55;2.80;;;17.00;99.90;;;;;;5023115;28;20564;-67
2023/08/15 02:57:08;;;;;;;2.55;2.35;;;17.00;99.90;;;;;;5020224;28;20104;-67
2023/08/15 02:59:34;;;;;;;9.25;2.72;;;16.90;99.90;;;;;;5023515;28;20053;-67
2023/08/15 03:01:59;;;;;;;3.33;2.38;;;16.80;99.90;;;;;;5013398;28;20041;-67
2023/08/15 03:04:25;;;;;;;6.93;2.40;;;16.80;99.90;;;;;;5006985;28;25643;-67
2023/08/15 03:06:51;;;;;;;2.95;2.45;;;16.80;99.90;;;;;;5013205;28;20041;-68
2023/08/15 03:09:16;;;;;;;5.13;2.53;;;16.90;99.90;;;;;;5018236;28;20048;-67
2023/08/15 03:11:42;;;;;;;2.70;2.50;;;16.90;99.90;;;;;;5009096;28;20087;-67
2023/08/15 03:14:08;;;;;;;4.72;2.78;;;16.90;99.90;;;;;;5015373;28;20038;-67
2023/08/15 03:16:34;;;;;;;5.97;2.75;;;16.90;99.90;;;;;;5020914;28;20741;-67
2023/08/15 03:19:00;;;;;;;2.60;2.40;;;16.90;99.90;;;;;;5022285;28;20052;-67
2023/08/15 03:21:25;;;;;;;2.83;2.13;;;16.90;99.90;;;;;;4988579;28;20876;-68
2023/08/15 03:23:51;;;;;;;3.10;2.28;;;17.00;99.90;;;;;;5024743;28;20141;-67
2023/08/15 03:26:17;;;;;;;4.05;2.30;;;16.90;99.90;;;;;;5017558;28;20769;-67
2023/08/15 03:28:42;;;;;;;4.00;2.10;;;16.80;99.90;;;;;;5022579;28;20049;-67
2023/08/15 03:31:08;;;;;;;5.28;2.83;;;16.80;99.90;;;;;;5013356;28;20056;-67
2023/08/15 03:33:35;;;;;;;2.20;2.00;;;16.80;99.90;;;;;;5004319;28;20106;-67
2023/08/15 03:36:01;;;;;;;4.18;2.60;;;16.80;99.90;;;;;;5025716;28;20098;-67
2023/08/15 03:38:26;;;;;;;3.63;2.65;;;16.90;99.90;;;;;;5025411;28;20485;-67
2023/08/15 03:41:04;;;;;;;2.75;2.50;;;16.90;99.90;;;;;;5023937;28;20037;-67
2023/08/15 03:43:31;;;;;;;2.53;2.25;;;16.90;99.90;;;;;;5017711;28;20043;-67
2023/08/15 03:45:57;;;;;;;2.90;2.60;;;16.90;99.90;;;;;;5021475;28;20178;-67
2023/08/15 03:48:23;;;;;;;2.15;1.92;;;17.00;99.90;;;;;;5027338;28;20068;-67
2023/08/15 03:50:51;;;;;;;3.75;2.17;;;17.00;99.90;;;;;;5015299;28;20067;-67
2023/08/15 03:53:17;;;;;;;5.13;2.28;;;17.00;99.90;;;;;;5023277;28;20162;-68
2023/08/15 03:55:43;;;;;;;2.30;2.10;;;16.90;99.90;;;;;;5006059;28;20073;-67
2023/08/15 03:58:08;;;;;;;2.88;1.80;;;16.90;99.90;;;;;;5024568;28;20067;-67
2023/08/15 04:00:34;;;;;;;4.82;2.33;;;16.90;99.90;;;;;;5024024;28;20042;-68
2023/08/15 04:02:59;;;;;;;5.10;2.28;;;16.90;99.90;;;;;;5014275;28;20490;-67
2023/08/15 04:05:26;;;;;;;3.33;2.33;;;16.80;99.90;;;;;;5007992;28;20476;-67
2023/08/15 04:07:51;;;;;;;3.55;2.25;;;16.80;99.90;;;;;;5014844;28;20121;-67
2023/08/15 04:10:17;;;;;;;3.15;2.65;;;16.80;99.90;;;;;;5019927;28;20041;-68
2023/08/15 04:12:45;;;;;;;3.92;2.13;;;16.80;99.90;;;;;;5012127;28;20038;-67
2023/08/15 04:15:11;;;;;;;2.90;2.40;;;16.80;99.90;;;;;;5023661;28;20737;-67
2023/08/15 04:17:37;;;;;;;3.78;2.60;;;16.90;99.90;;;;;;5015070;28;20102;-66
2023/08/15 04:20:07;;;;;;;3.50;2.28;;;16.90;99.90;;;;;;5023035;28;20037;-66
2023/08/15 04:22:32;;;;;;;2.80;2.60;;;17.00;99.90;;;;;;5017896;28;20569;-67
2023/08/15 04:24:58;;;;;;;2.22;2.03;;;17.10;99.90;;;;;;5010569;28;20106;-67
2023/08/15 04:27:23;;;;;;;4.53;2.13;;;17.20;99.90;;;;;;5012618;28;21125;-67
2023/08/15 04:29:49;;;;;;;2.55;2.10;;;17.20;99.90;;;;;;5023607;28;20037;-67
2023/08/15 04:32:15;;;;;;;2.10;2.00;;;17.30;99.90;;;;;;5019502;28;20037;-67
2023/08/15 04:34:40;;;;;;;2.75;2.20;;;17.30;99.90;;;;;;5021521;28;21865;-66
2023/08/15 04:37:06;;;;;;;3.03;2.60;;;17.40;99.90;;;;;;5023610;28;20549;-67
2023/08/15 04:39:31;;;;;;;2.58;2.38;;;17.40;99.90;;;;;;5013767;28;20045;-67
2023/08/15 04:41:57;;;;;;;3.95;2.53;;;17.40;99.90;;;;;;5008629;28;20508;-67
2023/08/15 04:44:23;;;;;;;3.33;2.85;;;17.50;99.90;;;;;;5008573;28;20130;-66
2023/08/15 04:46:48;;;;;;;4.00;2.50;;;17.40;99.90;;;;;;5014931;28;20497;-67
2023/08/15 04:49:14;;;;;;;8.57;2.25;;;17.50;99.90;;;;;;5010635;28;20762;-66
2023/08/15 04:51:39;;;;;;;6.38;2.70;;;17.60;99.90;;;;;;5004502;28;20106;-67
2023/08/15 04:54:05;;;;;;;4.25;2.60;;;17.70;99.90;;;;;;5008761;28;20056;-67
2023/08/15 04:56:31;;;;;;;6.93;3.15;;;17.70;99.90;;;;;;5002271;28;20386;-67
2023/08/15 04:58:57;;;;;;;3.33;2.45;;;17.80;99.90;;;;;;5003747;28;20041;-66
2023/08/15 05:01:23;;;;;;;3.08;2.70;;;17.90;99.90;;;;;;5002912;28;20091;-66
2023/08/15 05:03:48;;;;;;;3.67;2.60;;;18.00;99.90;;;;;;5003724;28;20045;-67
2023/08/15 05:06:14;;;;;;;2.75;2.38;;;18.20;99.90;;;;;;4999369;28;20052;-68
2023/08/15 05:08:40;;;;;;;4.93;2.80;;;18.30;99.90;;;;;;5009648;28;20395;-68
2023/08/15 05:11:05;;;;;;;4.20;2.75;;;18.40;99.90;;;;;;5016465;28;20148;-68
2023/08/15 05:13:31;;;;;;;5.22;3.50;;;18.50;99.90;;;;;;4995686;28;20037;-68
2023/08/15 05:15:57;;;;;;;3.45;3.08;;;18.60;99.90;;;;;;5008653;28;20074;-68
2023/08/15 05:18:22;;;;;;;5.63;3.50;;;18.70;99.90;;;;;;5021379;28;20052;-69
2023/08/15 05:20:48;;;;;;;5.00;2.40;;;18.90;99.90;;;;;;5016913;28;20029;-68
2023/08/15 05:23:17;;;;;;;3.40;2.72;;;19.10;99.90;;;;;;5011644;28;20044;-68
2023/08/15 05:25:43;;;;;;;4.75;3.13;;;19.20;99.90;;;;;;5022305;28;20068;-67
2023/08/15 05:28:09;;;;;;;6.45;3.10;;;19.30;99.90;;;;;;5013014;28;20040;-67
2023/08/15 05:30:36;;;;;;;3.15;2.67;;;19.50;99.90;;;;;;5019966;28;20414;-68
2023/08/15 05:33:02;;;;;;;4.93;3.03;;;19.60;99.90;;;;;;5002714;28;21505;-67
2023/08/15 05:35:28;;;;;;;3.65;3.35;;;19.80;99.90;;;;;;5016495;28;20052;-67
2023/08/15 05:37:54;;;;;;;6.28;2.88;;;20.00;99.90;;;;;;5014059;28;20139;-68
2023/08/15 05:40:23;;;;;;;4.25;2.88;;;20.10;99.90;;;;;;5019877;28;20045;-67
2023/08/15 05:42:49;;;;;;;6.15;3.13;;;20.30;99.90;;;;;;4971599;28;1106471;-67
2023/08/15 05:45:14;;;;;;;3.75;3.45;;;20.40;99.90;;;;;;5015565;28;20043;-67
2023/08/15 05:47:40;;;;;;;6.15;2.92;;;20.60;99.90;;;;;;5022284;28;20508;-68
2023/08/15 05:50:07;;;;;;;7.65;2.90;;;20.70;99.90;;;;;;5019842;28;20048;-67
2023/08/15 05:52:33;;;;;;;6.07;2.90;;;20.80;99.90;;;;;;5003589;28;20048;-67
2023/08/15 05:54:58;;;;;;;4.90;2.78;;;21.00;99.90;;;;;;5007434;28;20666;-68
2023/08/15 05:57:24;;;;;;;4.22;3.40;;;21.20;99.90;;;;;;5000975;28;20108;-68
2023/08/15 05:59:50;;;;;;;6.43;3.17;;;21.30;99.90;;;;;;4997975;28;20033;-67
2023/08/15 06:02:17;;;;;;;4.25;2.80;;;21.50;99.90;;;;;;4998543;28;20068;-67
2023/08/15 06:04:42;;;;;;;4.70;2.85;;;21.60;99.90;;;;;;5009806;28;20681;-66
2023/08/15 06:07:08;;;;;;;3.38;3.05;;;21.70;99.90;;;;;;5023676;28;20048;-67
2023/08/15 06:09:34;;;;;;;3.20;2.90;;;21.90;99.90;;;;;;5022804;28;20132;-67
2023/08/15 06:11:59;;;;;;;3.15;2.85;;;22.00;99.90;;;;;;5015582;28;20040;-68
2023/08/15 06:14:25;;;;;;;5.40;3.00;;;22.20;99.90;;;;;;5018004;28;20041;-67
2023/08/15 06:16:51;;;;;;;3.15;2.60;;;22.40;99.90;;;;;;5011817;28;20530;-66
2023/08/15 06:19:18;;;;;;;16.40;4.07;;;22.50;99.90;;;;;;5010173;28;20048;-61
2023/08/15 06:21:43;;;;;;;13.25;5.38;;;22.70;99.90;;;;;;4993752;28;20045;-61
2023/08/15 06:24:10;;;;;;;3.70;3.08;;;22.80;99.90;;;;;;4992612;28;20079;-61
2023/08/15 06:26:36;;;;;;;8.57;2.83;;;22.90;99.90;;;;;;5008388;28;20080;-62
2023/08/15 06:29:03;;;;;;;4.13;2.67;;;23.00;99.90;;;;;;4998477;28;20033;-61
2023/08/15 06:31:30;;;;;;;11.68;3.22;;;23.10;99.90;;;;;;4991974;28;20336;-61
2023/08/15 06:33:56;;;;;;;12.63;3.22;;;23.30;99.90;;;;;;5001915;28;20056;-61
2023/08/15 06:36:22;;;;;;;7.00;3.13;;;23.30;99.90;;;;;;4998010;28;20041;-61
2023/08/15 06:38:50;;;;;;;6.03;3.10;;;23.40;99.90;;;;;;4990374;28;23317;-61
2023/08/15 06:41:16;;;;;;;2.95;2.70;;;23.50;99.90;;;;;;4989777;28;20138;-61
2023/08/15 06:43:41;;;;;;;2.78;2.58;;;23.50;99.90;;;;;;4988139;28;20095;-62
2023/08/15 06:46:07;;;;;;;8.52;3.10;;;23.60;99.90;;;;;;4992676;28;20059;-61
2023/08/15 06:48:33;;;;;;;2.85;2.20;;;23.70;99.90;;;;;;5008180;28;20404;-61
2023/08/15 06:50:58;;;;;;;3.22;2.50;;;23.80;99.90;;;;;;5005257;28;20387;-62
2023/08/15 06:53:24;;;;;;;7.85;2.53;;;23.80;99.90;;;;;;4991940;28;20745;-61
2023/08/15 06:55:50;;;;;;;4.03;2.75;;;23.90;99.90;;;;;;4990818;28;20119;-61
2023/08/15 06:58:17;;;;;;;3.08;2.65;;;23.90;99.90;;;;;;4982089;28;20033;-61
2023/08/15 07:00:44;;;;;;;5.65;2.88;;;24.00;99.90;;;;;;4989779;28;20125;-61
2023/08/15 07:03:10;;;;;;;6.13;2.65;;;24.10;99.90;;;;;;4993481;28;20030;-61
2023/08/15 07:05:35;;;;;;;10.00;2.78;;;24.20;99.90;;;;;;4983595;28;20037;-61
2023/08/15 07:08:03;;;;;;;6.05;3.55;;;24.30;99.90;;;;;;5003433;28;20048;-61
2023/08/15 07:10:29;;;;;;;6.05;3.00;;;24.40;99.90;;;;;;4986210;28;22133;-61
2023/08/15 07:12:55;;;;;;;3.85;2.40;;;24.50;99.90;;;;;;4979681;28;21660;-61
2023/08/15 07:15:20;;;;;;;7.47;2.95;;;24.60;99.90;;;;;;4997451;28;20122;-63
2023/08/15 07:17:46;;;;;;;12.15;3.55;;;24.70;99.90;;;;;;5002838;28;20552;-66
2023/08/15 07:20:14;;;;;;;6.03;2.70;;;24.80;99.90;;;;;;5002289;28;20103;-61
2023/08/15 07:22:43;;;;;;;3.00;2.70;;;24.80;99.90;;;;;;5000123;28;20658;-61
2023/08/15 07:25:10;;;;;;;6.13;2.67;;;24.90;99.90;;;;;;4996968;28;20076;-62
2023/08/15 07:27:37;;;;;;;11.93;5.30;;;25.00;99.90;;;;;;4998012;28;20218;-75
2023/08/15 07:30:05;;;;;;;277.75;249.40;;;25.00;99.90;;;;;;4978905;28;20106;-69
2023/08/15 07:32:33;;;;;;;24.80;8.48;;;25.10;99.90;;;;;;5011311;28;20600;-73
2023/08/15 07:34:59;;;;;;;119.93;107.00;;;25.20;99.90;;;;;;5015724;28;20167;-65
2023/08/15 07:37:25;;;;;;;53.22;41.10;;;25.30;99.90;;;;;;5010773;28;22024;-66
2023/08/15 07:39:57;;;;;;;11.57;3.38;;;25.30;99.90;;;;;;5016254;28;20107;-67
2023/08/15 07:42:23;;;;;;;4.82;2.80;;;25.30;99.90;;;;;;5011964;28;20058;-65
2023/08/15 07:44:48;;;;;;;6.38;3.20;;;25.30;99.90;;;;;;5011795;28;20144;-65
2023/08/15 07:47:14;;;;;;;539.53;46.65;;;25.40;99.90;;;;;;5012961;28;20516;-67
2023/08/15 07:49:40;;;;;;;13.27;5.78;;;25.50;99.90;;;;;;5003139;28;20343;-64
2023/08/15 07:52:05;;;;;;;219.88;190.13;;;25.60;99.90;;;;;;5000524;28;20042;-65
2023/08/15 07:54:31;;;;;;;7.50;6.45;;;25.70;99.90;;;;;;5008136;28;20459;-64
2023/08/15 07:56:57;;;;;;;5.38;2.80;;;25.80;99.90;;;;;;5016505;28;20033;-64
2023/08/15 07:59:23;;;;;;;4.35;3.70;;;25.70;99.90;;;;;;5010026;28;20098;-65
2023/08/15 08:01:48;;;;;;;3.67;2.55;;;25.70;99.90;;;;;;4987870;28;20040;-65
2023/08/15 08:04:14;;;;;;;3.30;2.65;;;25.80;99.90;;;;;;4994337;28;20040;-65
2023/08/15 08:06:40;;;;;;;91.95;68.30;;;25.90;99.90;;;;;;5002725;28;20037;-65
2023/08/15 08:09:06;;;;;;;20.85;3.78;;;25.90;99.90;;;;;;5005286;28;20521;-65
2023/08/15 08:11:32;;;;;;;6.18;2.88;;;25.90;99.90;;;;;;4996488;28;20076;-65
2023/08/15 08:13:57;;;;;;;3.10;2.55;;;25.90;99.90;;;;;;4994947;28;20178;-65
2023/08/15 08:16:23;;;;;;;2.63;2.42;;;26.00;99.90;;;;;;5002667;28;20485;-70
2023/08/15 08:18:49;;;;;;;378.85;305.35;;;26.10;99.90;;;;;;5008936;28;20045;-63
2023/08/15 08:21:14;;;;;;;41.25;31.00;;;26.10;99.90;;;;;;5008346;28;20477;-64
2023/08/15 08:23:40;;;;;;;4.45;2.78;;;26.30;99.90;;;;;;5005073;28;20359;-65
2023/08/15 08:26:06;;;;;;;6.07;2.65;;;26.40;99.90;;;;;;5013497;28;20048;-65
2023/08/15 08:28:31;;;;;;;4.53;2.50;;;26.40;99.90;;;;;;5000400;28;20044;-65
2023/08/15 08:30:58;;;;;;;3.35;2.10;;;26.50;99.90;;;;;;4999868;28;20049;-66
2023/08/15 08:33:24;;;;;;;3.17;2.33;;;26.60;99.90;;;;;;5009196;28;20037;-66
2023/08/15 08:35:50;;;;;;;2.50;2.30;;;26.70;99.90;;;;;;4997925;28;20115;-66
2023/08/15 08:38:16;;;;;;;2.88;2.60;;;26.70;99.90;;;;;;5008159;28;20217;-66
2023/08/15 08:40:42;;;;;;;3.72;2.65;;;26.60;99.90;;;;;;5003000;28;21249;-65
2023/08/15 08:43:09;;;;;;;3.63;2.65;;;26.80;99.90;;;;;;4987586;28;20613;-64
2023/08/15 08:45:40;;;;;;;4.35;2.80;;;26.90;99.90;;;;;;5006040;28;20039;-66
2023/08/15 08:48:08;;;;;;;3.80;2.75;;;26.90;99.90;;;;;;5003341;28;20040;-72
2023/08/15 08:50:34;;;;;;;166.20;134.82;;;26.90;99.90;;;;;;5009008;28;20124;-77
2023/08/15 08:53:00;;;;;;;6.45;3.75;;;26.90;99.90;;;;;;5000807;28;20482;-67
2023/08/15 08:55:27;;;;;;;7.72;3.08;;;27.00;99.90;;;;;;5011517;28;20045;-68
2023/08/15 08:57:53;;;;;;;4.20;2.63;;;27.20;99.90;;;;;;5009782;28;20511;-67
2023/08/15 09:00:29;;;;;;;8.57;2.97;;;27.30;99.90;;;;;;4988087;28;20045;-66
2023/08/15 09:02:56;;;;;;;9.38;3.10;;;27.30;99.90;;;;;;5013463;28;20022;-68
2023/08/15 09:05:22;;;;;;;76.78;63.50;;;27.40;99.90;;;;;;5006309;28;20452;-68
2023/08/15 09:07:48;;;;;;;5.65;4.32;;;27.50;99.90;;;;;;5011086;28;20665;-63
2023/08/15 09:10:14;;;;;;;15.07;13.57;;;27.50;99.90;;;;;;5010531;28;20048;-72
2023/08/15 09:12:40;;;;;;;8.98;8.02;;;27.60;99.90;;;;;;5028215;28;20534;-75
2023/08/15 09:15:08;;;;;;;2.97;2.72;;;27.70;99.90;;;;;;5011728;28;20482;-65
2023/08/15 09:17:35;;;;;;;2.65;2.10;;;27.70;99.90;;;;;;5008737;28;20470;-64
2023/08/15 09:20:14;;;;;;;2.97;2.75;;;27.70;99.90;;;;;;4995611;28;20038;-64
2023/08/15 09:22:45;;;;;;;2.50;2.30;;;27.70;99.90;;;;;;4997609;28;20876;-63
2023/08/15 09:25:12;;;;;;;4.65;2.65;;;27.70;99.90;;;;;;5006181;28;20072;-64
2023/08/15 09:27:39;;;;;;;2.88;2.65;;;27.70;99.90;;;;;;5002992;28;20476;-63
2023/08/15 09:30:10;;;;;;;3.65;2.50;;;27.80;99.90;;;;;;5003985;28;20386;-63
2023/08/15 09:32:37;;;;;;;3.28;2.15;;;27.80;99.90;;;;;;5000475;28;20076;-63
2023/08/15 09:35:03;;;;;;;8.20;2.22;;;27.90;99.90;;;;;;5000573;28;20122;-64
2023/08/15 09:37:29;;;;;;;3.35;2.45;;;27.90;99.90;;;;;;4998383;28;20367;-65
2023/08/15 09:39:56;;;;;;;5.78;2.20;;;27.90;99.90;;;;;;5008530;28;20382;-66
2023/08/15 09:42:22;;;;;;;3.80;2.40;;;28.00;99.90;;;;;;5000162;28;20047;-64
2023/08/15 09:44:49;;;;;;;3.10;2.08;;;27.90;99.90;;;;;;4997350;28;20497;-65
2023/08/15 09:47:19;;;;;;;2.15;1.90;;;27.90;99.90;;;;;;5018616;28;20510;-66
2023/08/15 09:49:44;;;;;;;3.78;2.60;;;28.00;99.90;;;;;;5011266;28;20103;-66
2023/08/15 09:52:11;;;;;;;7.07;2.50;;;28.00;99.90;;;;;;5009258;28;20900;-65
2023/08/15 09:54:38;;;;;;;6.38;2.30;;;28.10;99.90;;;;;;5001703;28;21270;-62
2023/08/15 09:57:04;;;;;;;4.35;2.50;;;28.20;99.90;;;;;;5015720;28;20063;-64
2023/08/15 09:59:30;;;;;;;2.85;2.25;;;28.10;99.90;;;;;;5009579;28;20036;-63
2023/08/15 10:01:57;;;;;;;8.25;2.10;;;28.10;99.90;;;;;;5003427;28;20041;-63
2023/08/15 10:04:29;;;;;;;2.50;2.30;;;28.20;99.90;;;;;;5013985;28;20037;-63
2023/08/15 10:06:55;;;;;;;3.75;2.00;;;28.10;99.90;;;;;;5013866;28;20028;-63
2023/08/15 10:09:23;;;;;;;3.05;2.20;;;28.20;99.90;;;;;;5002386;28;20148;-63
2023/08/15 10:11:49;;;;;;;3.88;2.60;;;28.20;99.90;;;;;;5009670;28;20326;-63
2023/08/15 10:14:18;;;;;;;7.53;2.30;;;28.30;99.90;;;;;;5004108;28;20049;-64
2023/08/15 10:16:44;;;;;;;3.17;2.00;;;28.40;99.90;;;;;;5023988;28;20041;-64
2023/08/15 10:19:18;;;;;;;2.35;1.98;;;28.40;99.90;;;;;;5019680;28;20044;-63
2023/08/15 10:21:52;;;;;;;2.38;2.13;;;28.30;99.90;;;;;;5005392;28;20037;-64
2023/08/15 10:24:18;;;;;;;5.47;2.33;;;28.40;99.90;;;;;;5015914;28;20049;-64
2023/08/15 10:26:46;;;;;;;2.80;2.00;;;28.40;99.90;;;;;;5011706;28;20457;-64
2023/08/15 10:29:12;;;;;;;3.22;1.75;;;28.40;99.90;;;;;;5009656;28;20124;-63
2023/08/15 10:31:39;;;;;;;2.80;1.55;;;28.40;99.90;;;;;;5017848;28;20051;-63
2023/08/15 10:34:10;;;;;;;4.80;2.22;;;28.50;99.90;;;;;;5019805;28;20175;-64
2023/08/15 10:36:39;;;;;;;2.38;1.90;;;28.50;99.90;;;;;;5023032;28;20600;-63
2023/08/15 10:39:06;;;;;;;7.95;2.03;;;28.50;99.90;;;;;;5012193;28;20025;-63
2023/08/15 10:41:37;;;;;;;4.30;1.88;;;28.60;99.90;;;;;;5019637;28;20048;-63
2023/08/15 10:44:07;;;;;;;3.58;1.90;;;28.60;99.90;;;;;;5010355;28;20036;-63
2023/08/15 10:46:35;;;;;;;2.97;2.00;;;28.80;99.90;;;;;;5016461;28;20045;-63
2023/08/15 10:49:07;;;;;;;7.03;1.67;;;28.90;99.90;;;;;;5011874;28;20156;-63
2023/08/15 10:51:38;;;;;;;1.98;1.70;;;29.00;99.90;;;;;;5005669;28;20076;-63
2023/08/15 10:54:06;;;;;;;5.50;1.98;;;29.00;99.90;;;;;;5014686;28;20061;-64
2023/08/15 10:56:34;;;;;;;2.95;1.88;;;29.00;99.90;;;;;;5020449;28;20581;-63
2023/08/15 10:59:07;;;;;;;1.95;1.77;;;29.00;99.90;;;;;;5010240;28;20045;-63
2023/08/15 11:01:35;;;;;;;3.22;1.67;;;28.90;99.90;;;;;;5025891;28;20049;-63
2023/08/15 11:04:02;;;;;;;2.60;1.75;;;28.90;99.90;;;;;;5019995;28;20037;-63
2023/08/15 11:06:29;;;;;;;2.35;1.60;;;29.00;99.90;;;;;;5019059;28;20045;-63
2023/08/15 11:08:58;;;;;;;2.70;2.00;;;28.90;99.90;;;;;;5022380;28;20755;-63
2023/08/15 11:11:24;;;;;;;1.73;1.63;;;28.90;99.90;;;;;;5016540;28;20045;-63
2023/08/15 11:13:52;;;;;;;1.50;1.40;;;29.10;99.90;;;;;;5009862;28;20121;-63
2023/08/15 11:16:20;;;;;;;3.75;2.40;;;29.20;99.90;;;;;;5023217;28;20037;-63
2023/08/15 11:18:47;;;;;;;6.57;1.70;;;29.40;99.90;;;;;;5019732;28;20032;-63
2023/08/15 11:21:14;;;;;;;104.40;10.57;;;29.30;99.90;;;;;;5028672;28;20033;-63
2023/08/15 11:23:40;;;;;;;3.92;2.10;;;29.30;99.90;;;;;;5024725;28;20064;-62
2023/08/15 11:26:09;;;;;;;4.50;2.00;;;29.30;99.90;;;;;;5017775;28;20045;-62
2023/08/15 11:28:35;;;;;;;1.80;1.70;;;29.30;99.90;;;;;;5015174;28;20029;-62
2023/08/15 11:31:04;;;;;;;2.25;1.40;;;29.30;99.90;;;;;;5015477;28;20045;-63
2023/08/15 11:33:31;;;;;;;2.88;1.80;;;29.30;99.90;;;;;;5010236;28;20627;-63
2023/08/15 11:36:05;;;;;;;1.60;1.50;;;29.30;99.90;;;;;;5016327;28;20041;-62
2023/08/15 11:38:31;;;;;;;3.13;1.70;;;29.30;99.70;;;;;;5022037;28;20033;-64
2023/08/15 11:40:59;;;;;;;2.35;2.05;;;29.40;99.10;;;;;;5018440;28;20049;-63
2023/08/15 11:43:25;;;;;;;3.20;1.65;;;29.50;99.90;;;;;;5020276;28;20051;-62
2023/08/15 11:45:51;;;;;;;4.50;1.50;;;29.70;98.70;;;;;;5024153;28;20052;-62
2023/08/15 11:48:18;;;;;;;2.40;1.60;;;29.60;97.80;;;;;;5006502;28;20045;-63
2023/08/15 11:50:44;;;;;;;2.83;1.63;;;29.60;98.70;;;;;;5024289;28;20111;-62
2023/08/15 11:53:17;;;;;;;4.40;1.90;;;29.70;98.20;;;;;;5021208;28;20083;-63
2023/08/15 11:55:44;;;;;;;3.15;1.73;;;29.60;97.60;;;;;;5022722;28;20037;-63
2023/08/15 11:58:32;;;;;;;81.53;8.15;;;29.50;97.70;;;;;;5028848;28;20043;-63
2023/08/15 12:01:11;;;;;;;9.27;2.15;;;29.50;99.10;;;;;;5020248;28;20041;-64
2023/08/15 12:03:38;;;;;;;3.65;1.83;;;29.40;98.40;;;;;;5024056;28;20051;-70
2023/08/15 12:06:13;;;;;;;4.53;2.00;;;29.50;98.50;;;;;;5026728;28;20111;-68
2023/08/15 12:08:43;;;;;;;6.50;2.00;;;29.40;98.30;;;;;;5025623;28;20542;-69
2023/08/15 12:11:10;;;;;;;2.25;1.90;;;29.50;98.70;;;;;;5023653;28;20072;-69
2023/08/15 12:13:40;;;;;;;2.80;1.83;;;29.60;98.90;;;;;;5023563;28;20037;-70
2023/08/15 12:16:08;;;;;;;4.50;1.85;;;29.80;98.50;;;;;;5028746;28;20037;-70
2023/08/15 12:18:34;;;;;;;1.80;1.70;;;29.90;97.50;;;;;;5020442;28;20482;-69
2023/08/15 12:21:01;;;;;;;1.85;1.63;;;30.00;97.10;;;;;;5022472;28;20507;-70
2023/08/15 12:23:26;;;;;;;6.68;1.98;;;29.90;96.80;;;;;;5023108;28;20146;-70
2023/08/15 12:25:52;;;;;;;2.38;1.58;;;29.90;96.30;;;;;;5023762;28;20033;-70
2023/08/15 12:28:18;;;;;;;3.30;1.88;;;29.90;96.20;;;;;;5024119;28;20460;-69
2023/08/15 12:30:48;;;;;;;2.63;2.00;;;29.80;96.10;;;;;;5024775;28;20079;-69
2023/08/15 12:33:14;;;;;;;2.10;1.85;;;29.80;97.50;;;;;;5025334;28;20033;-69
2023/08/15 12:35:40;;;;;;;4.90;1.80;;;29.90;95.50;;;;;;5020750;28;20068;-69
2023/08/15 12:38:06;;;;;;;2.30;2.00;;;29.90;92.40;;;;;;5013498;28;20094;-63
2023/08/15 12:40:31;;;;;;;4.35;1.73;;;29.90;93.30;;;;;;5024587;28;20525;-63
2023/08/15 12:42:58;;;;;;;2.03;1.73;;;29.80;93.70;;;;;;5023109;28;20108;-62
2023/08/15 12:45:24;;;;;;;3.72;2.13;;;29.90;93.80;;;;;;5027056;28;20036;-63